Jamieson, Oregon
Current Conditions -  °F | °C
As of 9:53 AM on Sunday 21 Dec 2014 (Local Time) from KONO Reporting Station
Light Rain Light Rain  
Wind Chill: 43°   Ceiling: 4900
Heat Index: 45°   Visibility: 9mi
Dew Point: 42°   Wind: 5mph
Humidity: 90%   Direction: 20°NNE
Pressure: 29.93"   Gusts: NA
Location:  44.18°N, 117.44°W
Report Text: KONO 211653Z AUTO 02004KT 9SM -RA SCT038 OVC049 07/06 A2993 RMK AO2 PRESRR SLP143 P0003 T00720056
Loading
Personal Weather Stations






























Interactive Weather Map New forecast layout! Learn more

10-Day Weather Forecast

Advertisements
Track Severe Weather on mobile